Time;durP1;ratioP1;P1;durP2;ratioP2;P2;SDS_P1;SDS_P2;PMS_P1;PMS_P2;Temp;Humidity;BMP_temperature;BMP_pressure;BME280_temperature;BME280_humidity;BME280_pressure;Samples;Min_cycle;Max_cycle;Signal;HPM_P1;HPM_P2
2021/03/25 00:00:11;;;;;;;20.63;14.88;;;5.30;99.90;;;;;;4988540;28;20033;-74
2021/03/25 00:02:37;;;;;;;22.67;14.57;;;5.20;99.90;;;;;;4986551;28;20113;-74
2021/03/25 00:05:06;;;;;;;18.50;12.23;;;5.20;99.90;;;;;;4981612;28;21504;-74
2021/03/25 00:07:32;;;;;;;17.98;12.40;;;5.10;99.90;;;;;;4995324;28;20039;-75
2021/03/25 00:09:58;;;;;;;15.65;11.18;;;5.20;99.90;;;;;;4988559;28;20026;-74
2021/03/25 00:12:23;;;;;;;19.73;11.07;;;5.20;99.90;;;;;;4996639;28;20034;-74
2021/03/25 00:14:49;;;;;;;24.15;12.43;;;5.20;99.90;;;;;;5020571;28;20093;-75
2021/03/25 00:17:15;;;;;;;18.33;12.38;;;5.30;99.90;;;;;;5024516;28;20512;-73
2021/03/25 00:19:40;;;;;;;16.77;12.07;;;5.30;99.90;;;;;;5003394;28;20090;-74
2021/03/25 00:22:06;;;;;;;13.35;11.68;;;5.30;99.90;;;;;;4984394;28;20049;-74
2021/03/25 00:24:32;;;;;;;16.85;12.02;;;5.30;99.90;;;;;;4990968;28;20030;-74
2021/03/25 00:26:58;;;;;;;19.65;12.77;;;5.40;99.90;;;;;;4986538;28;20022;-73
2021/03/25 00:29:23;;;;;;;20.30;13.45;;;5.30;99.90;;;;;;4985462;28;20102;-74
2021/03/25 00:31:49;;;;;;;15.95;11.10;;;5.30;99.90;;;;;;4995547;28;20031;-74
2021/03/25 00:34:14;;;;;;;16.27;11.98;;;5.20;99.90;;;;;;4990595;28;20510;-74
2021/03/25 00:36:40;;;;;;;19.23;12.68;;;5.10;99.90;;;;;;4990145;28;20426;-74
2021/03/25 00:39:08;;;;;;;21.67;13.23;;;5.10;99.90;;;;;;4987922;28;20034;-74
2021/03/25 00:41:35;;;;;;;16.27;11.85;;;5.00;99.90;;;;;;4987935;28;20085;-73
2021/03/25 00:44:03;;;;;;;18.70;11.48;;;5.10;99.90;;;;;;4991931;28;20031;-74
2021/03/25 00:46:29;;;;;;;18.58;13.00;;;5.00;99.90;;;;;;4984050;28;20057;-74
2021/03/25 00:48:54;;;;;;;22.00;13.43;;;4.90;99.90;;;;;;4985587;28;20069;-74
2021/03/25 00:51:20;;;;;;;14.98;12.63;;;4.90;99.90;;;;;;4985653;28;20029;-74
2021/03/25 00:53:45;;;;;;;17.90;12.77;;;4.90;99.90;;;;;;5000188;28;20041;-74
2021/03/25 00:56:11;;;;;;;19.95;14.18;;;4.80;99.90;;;;;;4985651;28;20372;-74
2021/03/25 00:58:36;;;;;;;19.45;13.15;;;4.80;99.90;;;;;;4983678;28;20023;-74
2021/03/25 01:01:04;;;;;;;19.17;13.95;;;4.80;99.90;;;;;;4989704;28;20022;-74
2021/03/25 01:03:30;;;;;;;18.15;12.70;;;4.80;99.90;;;;;;4989942;28;20033;-74
2021/03/25 01:05:56;;;;;;;18.92;13.25;;;4.80;99.90;;;;;;4995244;28;20018;-74
2021/03/25 01:08:21;;;;;;;19.63;12.63;;;4.80;99.90;;;;;;4993045;28;20052;-74
2021/03/25 01:10:53;;;;;;;21.40;14.10;;;4.70;99.90;;;;;;4992648;28;20026;-74
2021/03/25 01:13:30;;;;;;;19.88;13.82;;;4.70;99.90;;;;;;4995700;28;20458;-74
2021/03/25 01:15:57;;;;;;;19.70;11.10;;;4.70;99.90;;;;;;5000581;28;20487;-74
2021/03/25 01:18:24;;;;;;;16.42;12.30;;;4.60;99.90;;;;;;4987278;28;20027;-75
2021/03/25 01:20:50;;;;;;;21.63;13.27;;;4.60;99.90;;;;;;4995634;28;20475;-73
2021/03/25 01:23:16;;;;;;;22.17;13.30;;;4.60;99.90;;;;;;4997265;28;20394;-74
2021/03/25 01:25:42;;;;;;;19.17;12.65;;;4.60;99.90;;;;;;5005015;28;20065;-74
2021/03/25 01:28:11;;;;;;;20.50;13.93;;;4.60;99.90;;;;;;4985812;28;20034;-74
2021/03/25 01:30:37;;;;;;;24.52;15.23;;;4.50;99.90;;;;;;4978302;28;20032;-74
2021/03/25 01:33:05;;;;;;;20.60;13.63;;;4.50;99.90;;;;;;4993904;28;20538;-75
2021/03/25 01:35:33;;;;;;;24.92;14.43;;;4.40;99.90;;;;;;4986505;28;20077;-74
2021/03/25 01:37:58;;;;;;;25.52;14.73;;;4.40;99.90;;;;;;5008690;23;20042;-71
2021/03/25 01:40:35;;;;;;;25.52;14.80;;;4.40;99.90;;;;;;5025637;28;20037;-72
2021/03/25 01:43:40;;;;;;;22.95;14.35;;;4.40;99.90;;;;;;5024032;28;20025;-72
2021/03/25 01:46:17;;;;;;;22.25;14.77;;;4.40;99.90;;;;;;5011244;28;20321;-71
2021/03/25 01:48:45;;;;;;;22.00;13.90;;;4.30;99.90;;;;;;4996966;28;20034;-72
2021/03/25 01:51:38;;;;;;;20.70;13.38;;;4.30;99.90;;;;;;4993790;28;20101;-72
2021/03/25 01:54:16;;;;;;;29.42;15.93;;;4.30;99.90;;;;;;4988342;28;20160;-73
2021/03/25 01:57:04;;;;;;;21.83;14.57;;;4.20;99.90;;;;;;4989954;28;20505;-72
2021/03/25 02:00:03;;;;;;;17.95;13.50;;;4.30;99.90;;;;;;4992762;28;20109;-73
2021/03/25 02:02:43;;;;;;;19.10;12.88;;;4.20;99.90;;;;;;4991932;28;20023;-72
2021/03/25 02:05:23;;;;;;;21.33;14.85;;;4.20;99.90;;;;;;4988498;28;20103;-71
2021/03/25 02:08:07;;;;;;;15.35;11.98;;;4.20;99.90;;;;;;4992873;28;20110;-72
2021/03/25 02:10:32;;;;;;;20.70;13.15;;;4.10;99.90;;;;;;4993162;28;20030;-72
2021/03/25 02:13:11;;;;;;;16.77;12.85;;;4.10;99.90;;;;;;4992223;28;20109;-72
2021/03/25 02:15:51;;;;;;;15.95;11.93;;;4.10;99.90;;;;;;4991452;28;20038;-71
2021/03/25 02:18:23;;;;;;;21.05;16.02;;;4.10;99.90;;;;;;4992106;28;20026;-71
2021/03/25 02:20:51;;;;;;;16.33;12.60;;;4.00;99.90;;;;;;4990230;28;20097;-70
2021/03/25 02:23:32;;;;;;;18.92;14.18;;;4.00;99.90;;;;;;4993060;28;20113;-71
2021/03/25 02:26:05;;;;;;;19.60;12.70;;;4.00;99.90;;;;;;4995412;28;20026;-72
2021/03/25 02:28:39;;;;;;;22.23;13.77;;;4.00;99.90;;;;;;4992551;28;20384;-72
2021/03/25 02:31:12;;;;;;;20.27;13.70;;;4.00;99.90;;;;;;4993733;28;20038;-73
2021/03/25 02:33:41;;;;;;;19.80;13.55;;;4.00;99.90;;;;;;4994434;28;20022;-72
2021/03/25 02:36:10;;;;;;;17.90;13.60;;;3.90;99.90;;;;;;4985300;28;20023;-72
2021/03/25 02:38:42;;;;;;;24.02;12.63;;;3.90;99.90;;;;;;4989354;28;20030;-72
2021/03/25 02:41:41;;;;;;;17.73;11.88;;;4.00;99.90;;;;;;4991126;28;20429;-72
2021/03/25 02:44:10;;;;;;;18.55;12.23;;;4.00;99.90;;;;;;4992843;28;20041;-71
2021/03/25 02:46:53;;;;;;;22.17;12.65;;;3.90;99.90;;;;;;4991628;28;20027;-71
2021/03/25 02:49:22;;;;;;;19.88;11.85;;;3.90;99.90;;;;;;4991347;28;20176;-72
2021/03/25 02:51:47;;;;;;;20.83;14.63;;;3.80;99.90;;;;;;4987087;28;20033;-72
2021/03/25 02:54:13;;;;;;;20.58;13.25;;;3.80;99.90;;;;;;4991750;28;20034;-72
2021/03/25 02:56:55;;;;;;;20.65;13.02;;;3.80;99.90;;;;;;4990983;28;20578;-72
2021/03/25 02:59:26;;;;;;;19.55;12.43;;;3.80;99.90;;;;;;4992532;28;20025;-72
2021/03/25 03:01:57;;;;;;;20.65;12.70;;;3.90;99.90;;;;;;4997488;28;20386;-72
2021/03/25 03:04:30;;;;;;;24.65;12.57;;;3.80;99.90;;;;;;5006704;28;20502;-72
2021/03/25 03:07:13;;;;;;;18.98;11.95;;;3.70;99.90;;;;;;4997704;28;20038;-71
2021/03/25 03:09:44;;;;;;;19.48;12.13;;;3.70;99.90;;;;;;4994468;28;20028;-72
2021/03/25 03:12:15;;;;;;;14.88;11.57;;;3.60;99.90;;;;;;4996724;28;20058;-72
2021/03/25 03:15:10;;;;;;;15.05;11.23;;;3.70;99.90;;;;;;4995974;28;20037;-72
2021/03/25 03:17:50;;;;;;;17.10;11.13;;;3.70;99.90;;;;;;4958780;28;20026;-72
2021/03/25 03:20:22;;;;;;;13.30;11.52;;;3.60;99.90;;;;;;4993129;28;20027;-73
2021/03/25 03:22:49;;;;;;;17.55;11.55;;;3.60;99.90;;;;;;4995809;28;20126;-72
2021/03/25 03:25:18;;;;;;;13.68;11.07;;;3.60;99.90;;;;;;4994609;28;20399;-71
2021/03/25 03:27:48;;;;;;;15.32;11.45;;;3.50;99.90;;;;;;4993986;28;20401;-72
2021/03/25 03:30:22;;;;;;;16.60;11.90;;;3.60;99.90;;;;;;4991387;28;20325;-71
2021/03/25 03:32:55;;;;;;;14.38;11.20;;;3.50;99.90;;;;;;4990474;28;20031;-72
2021/03/25 03:35:26;;;;;;;15.77;11.32;;;3.50;99.90;;;;;;4996109;28;20022;-73
2021/03/25 03:37:59;;;;;;;19.08;11.18;;;3.50;99.90;;;;;;4995580;28;20045;-72
2021/03/25 03:40:34;;;;;;;13.82;10.52;;;3.50;99.90;;;;;;4995072;28;20026;-72
2021/03/25 03:43:04;;;;;;;15.35;10.63;;;3.50;99.90;;;;;;4996216;28;20047;-71
2021/03/25 03:45:31;;;;;;;13.67;10.40;;;3.40;99.90;;;;;;4995528;28;20041;-72
2021/03/25 03:48:03;;;;;;;15.25;11.18;;;3.50;99.90;;;;;;4995518;28;20482;-73
2021/03/25 03:50:35;;;;;;;15.13;9.57;;;3.50;99.90;;;;;;4993655;28;20039;-72
2021/03/25 03:53:01;;;;;;;16.80;10.85;;;3.50;99.90;;;;;;4993976;28;20026;-71
2021/03/25 03:55:27;;;;;;;17.85;10.82;;;3.50;99.90;;;;;;4999889;28;20049;-71
2021/03/25 03:58:27;;;;;;;16.38;11.40;;;3.50;99.90;;;;;;4995813;28;20418;-71
2021/03/25 04:01:06;;;;;;;14.15;9.43;;;3.50;99.90;;;;;;4991451;28;20026;-72
2021/03/25 04:03:46;;;;;;;15.82;10.63;;;3.40;99.90;;;;;;5003518;28;20026;-72
2021/03/25 04:06:26;;;;;;;12.95;10.35;;;3.40;99.90;;;;;;4994942;28;20034;-72
2021/03/25 04:09:02;;;;;;;16.65;10.57;;;3.40;99.90;;;;;;4995206;28;20022;-72
2021/03/25 04:11:50;;;;;;;17.85;10.75;;;3.40;99.90;;;;;;4994776;28;20387;-72
2021/03/25 04:14:24;;;;;;;12.65;10.20;;;3.40;99.90;;;;;;4994860;28;20038;-73
2021/03/25 04:16:52;;;;;;;15.23;10.80;;;3.40;99.90;;;;;;4995656;28;20026;-72
2021/03/25 04:19:23;;;;;;;18.15;10.80;;;3.40;99.90;;;;;;4995203;28;20031;-72
2021/03/25 04:22:05;;;;;;;16.20;10.57;;;3.40;99.90;;;;;;4995907;28;20090;-73
2021/03/25 04:24:39;;;;;;;14.82;10.40;;;3.30;99.90;;;;;;4997445;28;20038;-72
2021/03/25 04:27:10;;;;;;;19.45;10.65;;;3.30;99.90;;;;;;4989691;28;20039;-72
2021/03/25 04:30:01;;;;;;;18.27;10.57;;;3.30;99.90;;;;;;5000379;28;20111;-71
2021/03/25 04:32:27;;;;;;;12.60;9.70;;;3.30;99.90;;;;;;4995915;28;20122;-72
2021/03/25 04:34:53;;;;;;;23.10;11.00;;;3.20;99.90;;;;;;4994237;28;20073;-71
2021/03/25 04:37:20;;;;;;;15.88;10.88;;;3.20;99.90;;;;;;4989811;28;20463;-72
2021/03/25 04:39:48;;;;;;;16.75;11.38;;;3.20;99.90;;;;;;4994963;28;20026;-72
2021/03/25 04:42:15;;;;;;;13.07;9.55;;;3.20;99.90;;;;;;4994480;28;20037;-74
2021/03/25 04:44:44;;;;;;;14.23;10.32;;;3.20;99.90;;;;;;4993343;28;20522;-72
2021/03/25 04:47:23;;;;;;;15.32;10.38;;;3.20;99.90;;;;;;4994486;28;20038;-71
2021/03/25 04:49:56;;;;;;;14.68;10.15;;;3.10;99.90;;;;;;4987631;28;20023;-72
2021/03/25 04:52:27;;;;;;;17.10;10.95;;;3.10;99.90;;;;;;4994726;28;20030;-72
2021/03/25 04:54:53;;;;;;;16.90;11.63;;;3.00;99.90;;;;;;4989873;28;20529;-72
2021/03/25 04:57:27;;;;;;;16.85;10.30;;;3.00;99.90;;;;;;4997338;28;20038;-73
2021/03/25 04:59:55;;;;;;;21.73;11.98;;;3.00;99.90;;;;;;4995958;28;20073;-73
2021/03/25 05:02:21;;;;;;;15.35;9.63;;;3.00;99.90;;;;;;4990093;28;20117;-72
2021/03/25 05:04:49;;;;;;;12.88;9.48;;;3.00;99.90;;;;;;5002784;28;20092;-71
2021/03/25 05:07:41;;;;;;;15.90;10.25;;;3.00;99.90;;;;;;4994292;28;20038;-72
2021/03/25 05:10:21;;;;;;;12.95;10.45;;;3.00;99.90;;;;;;4992520;28;20494;-72
2021/03/25 05:12:50;;;;;;;16.10;10.93;;;3.00;99.90;;;;;;4994944;28;20395;-71
2021/03/25 05:15:18;;;;;;;18.20;11.00;;;3.10;99.90;;;;;;4994119;28;20026;-72
2021/03/25 05:18:03;;;;;;;13.63;10.25;;;3.10;99.90;;;;;;4993870;28;20022;-72
2021/03/25 05:20:47;;;;;;;16.88;10.77;;;3.00;99.90;;;;;;4993871;28;20037;-72
2021/03/25 05:23:16;;;;;;;18.52;10.65;;;3.00;99.90;;;;;;4992332;28;20026;-73
2021/03/25 05:25:53;;;;;;;16.52;10.45;;;3.10;99.90;;;;;;4995549;28;20022;-72
2021/03/25 05:28:59;;;;;;;12.50;9.57;;;3.20;99.90;;;;;;4991412;28;20113;-73
2021/03/25 05:31:28;;;;;;;14.68;11.60;;;3.30;99.90;;;;;;4957458;28;20034;-73
2021/03/25 05:33:57;;;;;;;14.18;10.32;;;3.30;99.90;;;;;;4994375;28;20045;-72
2021/03/25 05:36:23;;;;;;;12.57;10.25;;;3.40;99.90;;;;;;4993628;28;20101;-73
2021/03/25 05:38:49;;;;;;;16.13;10.35;;;3.40;99.90;;;;;;4994169;28;20033;-74
2021/03/25 05:42:14;;;;;;;13.27;9.60;;;3.50;99.90;;;;;;4994143;28;20105;-72
2021/03/25 05:45:17;;;;;;;13.45;10.60;;;3.60;99.90;;;;;;4922579;29;20028;-72
2021/03/25 05:48:01;;;;;;;17.90;11.63;;;3.70;99.90;;;;;;4914912;29;20527;-72
2021/03/25 05:50:51;;;;;;;13.73;9.30;;;3.80;99.90;;;;;;4981324;28;20053;-72
2021/03/25 05:53:35;;;;;;;18.35;10.05;;;3.80;99.90;;;;;;4993994;28;20054;-72
2021/03/25 05:56:13;;;;;;;15.48;9.43;;;3.80;99.90;;;;;;4989679;28;20026;-73
2021/03/25 05:59:09;;;;;;;13.40;10.10;;;3.90;99.90;;;;;;4987790;28;20084;-71
2021/03/25 06:02:00;;;;;;;14.25;9.75;;;3.80;99.90;;;;;;5005381;28;20023;-74
2021/03/25 06:04:37;;;;;;;27.45;11.68;;;3.90;99.90;;;;;;4991535;28;20035;-72
2021/03/25 06:07:15;;;;;;;13.38;10.98;;;4.00;99.90;;;;;;4987510;28;20056;-72
2021/03/25 06:09:58;;;;;;;10.85;9.57;;;4.10;99.90;;;;;;4990331;28;20153;-72
2021/03/25 06:12:59;;;;;;;23.85;10.02;;;4.20;99.90;;;;;;4991405;28;20034;-73
2021/03/25 06:15:49;;;;;;;17.02;10.32;;;4.40;99.90;;;;;;4979245;28;20049;-72
2021/03/25 06:18:45;;;;;;;20.70;10.93;;;4.50;99.90;;;;;;4993327;28;20403;-71
2021/03/25 06:21:19;;;;;;;15.77;9.25;;;4.60;99.90;;;;;;5002090;28;20554;-72
2021/03/25 06:24:06;;;;;;;16.35;10.48;;;4.80;99.90;;;;;;4988397;28;20030;-72
2021/03/25 06:26:56;;;;;;;12.57;9.05;;;5.00;99.90;;;;;;5006667;28;20011;-71
2021/03/25 06:29:34;;;;;;;12.13;8.65;;;5.30;99.90;;;;;;5004975;28;20061;-71
2021/03/25 06:32:25;;;;;;;12.18;8.65;;;5.50;99.90;;;;;;4998428;28;20022;-71
2021/03/25 06:35:11;;;;;;;13.25;8.55;;;5.80;99.90;;;;;;4991581;28;20034;-71
2021/03/25 06:37:51;;;;;;;11.23;9.02;;;6.00;99.90;;;;;;4991469;28;20031;-72
2021/03/25 06:40:26;;;;;;;15.75;9.10;;;6.20;99.90;;;;;;4990685;28;20046;-72
2021/03/25 06:43:03;;;;;;;10.85;8.30;;;6.20;99.90;;;;;;4985815;28;20500;-72
2021/03/25 06:45:36;;;;;;;13.02;9.20;;;6.50;99.90;;;;;;4991658;28;20034;-72
2021/03/25 06:48:12;;;;;;;14.65;9.65;;;6.60;99.90;;;;;;4992611;28;20027;-73
2021/03/25 06:50:52;;;;;;;10.00;8.82;;;6.70;99.90;;;;;;4990513;28;20106;-72
2021/03/25 06:53:29;;;;;;;15.27;9.20;;;6.80;99.90;;;;;;4992480;28;20065;-72
2021/03/25 06:56:00;;;;;;;11.23;8.75;;;6.80;99.90;;;;;;4992075;28;20026;-71
2021/03/25 06:58:29;;;;;;;18.67;8.60;;;6.80;99.90;;;;;;4992022;28;20023;-72
2021/03/25 07:01:02;;;;;;;17.77;9.38;;;6.90;99.90;;;;;;4991976;28;20394;-72
2021/03/25 07:03:30;;;;;;;12.90;9.18;;;7.00;99.90;;;;;;4993565;28;20018;-71
2021/03/25 07:05:56;;;;;;;14.27;9.90;;;7.10;93.70;;;;;;5004992;28;20366;-71
2021/03/25 07:08:24;;;;;;;12.68;9.68;;;7.10;84.20;;;;;;4991662;28;20034;-73
2021/03/25 07:10:54;;;;;;;12.05;8.98;;;7.10;98.90;;;;;;4992126;28;20421;-72
2021/03/25 07:13:48;;;;;;;13.60;8.50;;;7.10;99.90;;;;;;4992696;28;20482;-73
2021/03/25 07:16:14;;;;;;;17.75;11.30;;;7.30;58.50;;;;;;4988785;28;20120;-72
2021/03/25 07:19:00;;;;;;;17.60;9.18;;;7.10;64.80;;;;;;4989383;28;20483;-72
2021/03/25 07:21:48;;;;;;;15.02;9.50;;;7.20;90.30;;;;;;4992877;28;20062;-71
2021/03/25 07:24:23;;;;;;;13.35;9.93;;;7.40;57.60;;;;;;5009646;28;20030;-72
2021/03/25 07:26:56;;;;;;;16.15;9.07;;;7.40;70.40;;;;;;4993178;28;20026;-73
2021/03/25 07:29:30;;;;;;;12.70;9.77;;;7.30;90.10;;;;;;4991089;28;20394;-73
2021/03/25 07:32:04;;;;;;;15.25;8.88;;;7.20;96.40;;;;;;4992182;28;20029;-72
2021/03/25 07:34:43;;;;;;;13.98;9.40;;;7.60;33.90;;;;;;4990232;28;20037;-72
2021/03/25 07:37:11;;;;;;;15.93;9.50;;;7.70;20.30;;;;;;4991655;28;20504;-72
2021/03/25 07:39:48;;;;;;;14.35;9.32;;;7.50;28.60;;;;;;4996828;23;20051;-76
2021/03/25 07:42:32;;;;;;;11.40;9.65;;;7.40;45.90;;;;;;4973348;28;20019;-75
2021/03/25 07:45:35;;;;;;;11.57;9.15;;;7.40;52.70;;;;;;4969675;28;20470;-75
2021/03/25 07:48:27;;;;;;;13.65;9.82;;;7.70;30.00;;;;;;4976006;28;20077;-74
2021/03/25 07:51:12;;;;;;;10.38;9.32;;;7.80;1.00;;;;;;4971077;28;20035;-75
2021/03/25 07:53:39;;;;;;;18.63;9.02;;;8.40;1.00;;;;;;4970675;28;20607;-74
2021/03/25 07:56:09;;;;;;;16.73;9.63;;;8.40;1.00;;;;;;4970850;28;20058;-75
2021/03/25 07:58:47;;;;;;;9.60;8.60;;;8.60;1.00;;;;;;4969370;28;20077;-74
2021/03/25 08:01:21;;;;;;;11.20;8.82;;;8.80;1.00;;;;;;4987070;28;20031;-76
2021/03/25 08:03:50;;;;;;;12.55;8.85;;;8.90;1.00;;;;;;4979629;28;20090;-75
2021/03/25 08:06:28;;;;;;;14.63;9.02;;;9.00;99.90;;;;;;4982292;28;20027;-76
2021/03/25 08:09:13;;;;;;;20.75;9.15;;;9.30;99.90;;;;;;4998118;28;20015;-76
2021/03/25 08:11:56;;;;;;;16.80;8.65;;;9.20;99.90;;;;;;5013384;28;20483;-76
2021/03/25 08:14:31;;;;;;;11.43;8.55;;;9.40;99.90;;;;;;4976538;28;20372;-75
2021/03/25 08:17:19;;;;;;;14.48;10.65;;;9.60;99.90;;;;;;4988566;28;20030;-74
2021/03/25 08:19:51;;;;;;;16.17;9.38;;;9.60;99.90;;;;;;4992973;28;20038;-75
2021/03/25 08:22:37;;;;;;;13.77;9.00;;;9.70;99.90;;;;;;4980183;28;20034;-77
2021/03/25 08:25:27;;;;;;;19.08;10.02;;;9.90;99.90;;;;;;4983240;28;20399;-74
2021/03/25 08:28:30;;;;;;;15.27;9.15;;;10.10;99.90;;;;;;4966628;28;20035;-76
2021/03/25 08:31:07;;;;;;;13.95;8.93;;;10.20;55.50;;;;;;4973249;28;20484;-74
2021/03/25 08:33:32;;;;;;;13.75;9.80;;;10.30;1.00;;;;;;4975447;28;20125;-73
2021/03/25 08:36:12;;;;;;;18.25;8.93;;;10.40;1.00;;;;;;4978511;28;20063;-74
2021/03/25 08:38:44;;;;;;;19.88;9.20;;;10.50;1.00;;;;;;4973309;28;20084;-74
2021/03/25 08:41:28;;;;;;;25.25;9.95;;;10.60;99.90;;;;;;4975413;28;20045;-75
2021/03/25 08:44:01;;;;;;;15.27;8.75;;;10.70;99.90;;;;;;4975199;28;20538;-75
2021/03/25 08:46:33;;;;;;;12.57;9.73;;;10.90;99.90;;;;;;4978139;28;20129;-74
2021/03/25 08:49:09;;;;;;;14.43;9.77;;;11.00;99.90;;;;;;4984034;28;20023;-75
2021/03/25 08:51:40;;;;;;;11.73;8.20;;;11.00;1.00;;;;;;4968407;28;20027;-75
2021/03/25 08:54:36;;;;;;;15.40;9.23;;;11.10;99.90;;;;;;4975706;28;20082;-74
2021/03/25 08:57:07;;;;;;;20.83;9.00;;;11.30;21.40;;;;;;4974810;28;20027;-75
2021/03/25 08:59:37;;;;;;;22.15;11.45;;;11.40;13.90;;;;;;4975480;28;20130;-75
2021/03/25 09:02:30;;;;;;;15.38;8.80;;;11.60;99.90;;;;;;4974185;28;20177;-74
2021/03/25 09:05:17;;;;;;;16.30;8.95;;;11.30;96.70;;;;;;4974089;28;20483;-76
2021/03/25 09:07:44;;;;;;;10.73;8.30;;;11.60;99.90;;;;;;4972180;28;20113;-74
2021/03/25 09:10:18;;;;;;;18.40;9.40;;;11.70;75.20;;;;;;4974609;28;20061;-74
2021/03/25 09:12:43;;;;;;;14.57;8.52;;;11.90;1.00;;;;;;4971652;28;20037;-75
2021/03/25 09:15:09;;;;;;;12.52;9.32;;;12.10;1.00;;;;;;4974453;28;20035;-74
2021/03/25 09:17:59;;;;;;;20.08;9.00;;;12.40;99.90;;;;;;4974618;28;20058;-75
2021/03/25 09:20:32;;;;;;;13.93;8.80;;;12.60;1.00;;;;;;4974077;28;20023;-74
2021/03/25 09:23:00;;;;;;;13.55;8.93;;;12.70;99.90;;;;;;4974766;28;20088;-75
2021/03/25 09:25:26;;;;;;;16.35;9.50;;;12.70;99.90;;;;;;4973979;28;20042;-75
2021/03/25 09:27:53;;;;;;;9.90;8.65;;;12.90;99.90;;;;;;4976030;28;20098;-75
2021/03/25 09:30:30;;;;;;;13.45;7.90;;;13.10;99.90;;;;;;4981346;28;20031;-77
2021/03/25 09:33:34;;;;;;;12.18;9.00;;;13.30;11.70;;;;;;4975597;28;20038;-74
2021/03/25 09:36:00;;;;;;;12.10;8.10;;;13.30;99.90;;;;;;4967465;28;20027;-75
2021/03/25 09:38:31;;;;;;;9.75;7.70;;;13.10;1.00;;;;;;4975090;28;20398;-75
2021/03/25 09:40:57;;;;;;;;;;;13.40;78.10;;;;;;4968592;28;20030;-75
2021/03/25 09:43:32;;;;;;;13.23;8.02;;;13.60;79.80;;;;;;4972836;28;19910;-75
2021/03/25 09:46:20;;;;;;;13.50;8.18;;;13.70;1.00;;;;;;4966956;28;20178;-76
2021/03/25 09:48:46;;;;;;;9.77;7.43;;;13.70;1.00;;;;;;4970350;28;20058;-75
2021/03/25 09:51:22;;;;;;;10.98;8.13;;;13.90;99.90;;;;;;4974747;28;20116;-75
2021/03/25 09:53:52;;;;;;;14.95;8.27;;;13.90;21.90;;;;;;4974130;28;20089;-76
2021/03/25 09:56:29;;;;;;;14.10;8.30;;;14.10;99.90;;;;;;4974255;28;20030;-75
2021/03/25 09:58:58;;;;;;;14.25;9.25;;;14.20;22.30;;;;;;4977247;28;20463;-75
2021/03/25 10:01:39;;;;;;;14.10;7.70;;;14.30;1.00;;;;;;4976077;28;20034;-75
2021/03/25 10:04:30;;;;;;;11.75;8.07;;;14.30;99.90;;;;;;4975503;28;20039;-76
2021/03/25 10:07:00;;;;;;;15.35;7.97;;;14.60;3.50;;;;;;4987921;28;20035;-76
2021/03/25 10:09:51;;;;;;;14.30;7.88;;;14.50;99.90;;;;;;4974301;28;20034;-76
2021/03/25 10:12:47;;;;;;;15.48;7.93;;;14.50;1.00;;;;;;4975077;28;20102;-77
2021/03/25 10:15:43;;;;;;;15.82;9.15;;;14.50;1.00;;;;;;4967281;28;20062;-77
2021/03/25 10:18:33;;;;;;;13.68;7.90;;;14.40;1.00;;;;;;4947069;28;20047;-76
2021/03/25 10:21:37;;;;;;;10.90;8.20;;;14.90;99.90;;;;;;4966484;28;20031;-75
2021/03/25 10:24:15;;;;;;;17.58;7.90;;;15.20;1.00;;;;;;4973065;28;20042;-76
2021/03/25 10:26:43;;;;;;;12.43;6.60;;;15.10;1.00;;;;;;4975476;28;20046;-75
2021/03/25 10:29:17;;;;;;;10.70;7.28;;;15.10;1.00;;;;;;4974596;28;20482;-75
2021/03/25 10:31:56;;;;;;;11.40;7.00;;;15.20;99.90;;;;;;4973846;28;20030;-76
2021/03/25 10:34:48;;;;;;;13.60;7.13;;;15.50;99.90;;;;;;4985165;28;20098;-75
2021/03/25 10:37:35;;;;;;;10.25;6.88;;;15.50;99.90;;;;;;4972942;28;20027;-74
2021/03/25 10:40:20;;;;;;;17.50;6.88;;;15.40;99.90;;;;;;4977112;28;20027;-74
2021/03/25 10:43:05;;;;;;;6.70;6.00;;;15.60;99.90;;;;;;4967681;28;20034;-74
2021/03/25 10:45:49;;;;;;;8.88;6.07;;;15.90;99.90;;;;;;4974397;28;20118;-76
2021/03/25 10:48:30;;;;;;;14.55;5.45;;;16.20;1.00;;;;;;4980130;28;20030;-75
2021/03/25 10:50:59;;;;;;;10.07;5.33;;;16.10;1.00;;;;;;4988260;28;20557;-75
2021/03/25 10:53:37;;;;;;;9.70;5.85;;;16.20;1.00;;;;;;4984352;28;20023;-75
2021/03/25 10:56:13;;;;;;;8.57;6.00;;;16.40;1.00;;;;;;4988671;28;20030;-76
2021/03/25 10:58:42;;;;;;;11.63;5.80;;;16.50;99.90;;;;;;4979915;28;20023;-76
2021/03/25 11:01:25;;;;;;;10.85;5.82;;;16.40;99.90;;;;;;4994200;28;20020;-77
2021/03/25 11:03:51;;;;;;;8.65;5.82;;;16.40;99.90;;;;;;4992292;28;20111;-76
2021/03/25 11:06:18;;;;;;;9.55;5.60;;;16.40;99.90;;;;;;4982497;28;20098;-74
2021/03/25 11:08:44;;;;;;;6.07;4.72;;;16.60;99.90;;;;;;4974052;28;20061;-75
2021/03/25 11:11:16;;;;;;;9.30;5.50;;;16.60;99.90;;;;;;4975217;28;20039;-75
2021/03/25 11:13:53;;;;;;;7.20;5.40;;;16.50;99.90;;;;;;4974091;28;20049;-76
2021/03/25 11:16:20;;;;;;;6.28;4.75;;;16.90;99.90;;;;;;4971369;28;20427;-75
2021/03/25 11:18:56;;;;;;;8.13;4.22;;;16.70;99.90;;;;;;4973091;28;20042;-75
2021/03/25 11:21:39;;;;;;;7.10;4.95;;;16.90;99.90;;;;;;4975065;28;20378;-75
2021/03/25 11:24:25;;;;;;;8.13;4.53;;;16.80;99.90;;;;;;4982541;28;20051;-75
2021/03/25 11:27:03;;;;;;;7.43;4.55;;;17.10;99.90;;;;;;4982462;28;20026;-74
2021/03/25 11:29:34;;;;;;;15.80;6.60;;;17.10;99.90;;;;;;4982214;28;20126;-73
2021/03/25 11:32:18;;;;;;;6.93;4.90;;;17.20;99.90;;;;;;4984003;28;20033;-75
2021/03/25 11:34:46;;;;;;;7.63;5.75;;;17.50;99.90;;;;;;4985733;28;20027;-79
2021/03/25 11:37:36;;;;;;;8.32;4.15;;;17.70;99.90;;;;;;4985475;28;20364;-80
2021/03/25 11:40:12;;;;;;;8.55;4.68;;;17.90;99.90;;;;;;4987302;28;20499;-80
2021/03/25 11:42:39;;;;;;;7.38;5.00;;;17.80;99.90;;;;;;4988205;28;20037;-80
2021/03/25 11:45:06;;;;;;;6.70;4.47;;;17.80;99.90;;;;;;4978069;28;20043;-80
2021/03/25 11:47:36;;;;;;;7.78;5.03;;;17.90;99.90;;;;;;4987479;28;20020;-77
2021/03/25 11:50:14;;;;;;;9.30;6.22;;;17.60;99.90;;;;;;4985748;28;20495;-80
2021/03/25 11:52:46;;;;;;;8.80;6.22;;;17.90;99.90;;;;;;4986632;28;20178;-79
2021/03/25 11:55:23;;;;;;;8.10;5.97;;;18.10;99.90;;;;;;4991769;28;20023;-80
2021/03/25 11:57:51;;;;;;;9.25;5.75;;;18.00;99.90;;;;;;4987099;28;20019;-79
2021/03/25 12:00:23;;;;;;;9.05;6.85;;;17.90;99.90;;;;;;4986487;28;20503;-79
2021/03/25 12:02:52;;;;;;;6.88;5.95;;;17.70;99.90;;;;;;5007040;28;20080;-79
2021/03/25 12:05:33;;;;;;;9.82;6.50;;;17.60;99.90;;;;;;4998430;28;20086;-78
2021/03/25 12:08:21;;;;;;;10.73;6.50;;;17.80;99.90;;;;;;4987390;28;20023;-79
2021/03/25 12:10:57;;;;;;;11.40;7.03;;;17.70;99.90;;;;;;4976894;28;20049;-80
2021/03/25 12:13:29;;;;;;;8.80;6.30;;;17.80;99.90;;;;;;4984286;28;20026;-79
2021/03/25 12:15:55;;;;;;;10.38;7.43;;;17.80;99.90;;;;;;4982561;28;20491;-81
2021/03/25 12:18:26;;;;;;;7.68;6.22;;;17.90;99.90;;;;;;4984603;28;20030;-80
2021/03/25 12:20:52;;;;;;;12.07;5.60;;;17.70;99.90;;;;;;4982461;28;20030;-79
2021/03/25 12:23:28;;;;;;;12.95;6.88;;;17.80;99.90;;;;;;4982793;28;20054;-79
2021/03/25 12:25:56;;;;;;;7.95;6.28;;;18.10;99.90;;;;;;4977225;28;20034;-78
2021/03/25 12:28:22;;;;;;;10.15;6.45;;;17.80;99.90;;;;;;4977848;28;20026;-79
2021/03/25 12:30:48;;;;;;;8.98;6.63;;;18.20;99.90;;;;;;4982105;28;20030;-80
2021/03/25 12:33:30;;;;;;;11.70;6.75;;;18.40;99.90;;;;;;4987514;28;20037;-79
2021/03/25 12:35:58;;;;;;;11.00;6.93;;;18.10;99.90;;;;;;4985386;28;20473;-79
2021/03/25 12:38:24;;;;;;;10.52;6.50;;;18.40;99.90;;;;;;4980542;28;20095;-81
2021/03/25 12:40:50;;;;;;;12.20;7.45;;;18.80;99.90;;;;;;4983280;28;20110;-80
2021/03/25 12:43:19;;;;;;;10.30;7.25;;;18.80;99.90;;;;;;4984384;28;20051;-80
2021/03/25 12:45:50;;;;;;;9.52;6.57;;;18.70;99.90;;;;;;4985267;28;20022;-80
2021/03/25 12:48:17;;;;;;;10.38;7.53;;;18.70;99.90;;;;;;4987259;28;20117;-80
2021/03/25 12:50:42;;;;;;;11.45;7.25;;;18.10;99.90;;;;;;4993294;28;20031;-80
2021/03/25 12:53:08;;;;;;;11.05;7.13;;;18.00;99.90;;;;;;4983752;28;20178;-80
2021/03/25 12:55:36;;;;;;;9.55;7.53;;;17.90;99.90;;;;;;4986566;28;20031;-80
2021/03/25 12:58:04;;;;;;;8.07;6.55;;;18.20;99.90;;;;;;4990802;28;20077;-80
2021/03/25 13:00:34;;;;;;;10.30;7.38;;;17.90;99.90;;;;;;4983591;28;20058;-81
2021/03/25 13:02:59;;;;;;;11.73;7.28;;;17.70;99.90;;;;;;4982812;28;20031;-80
2021/03/25 13:05:26;;;;;;;10.80;6.95;;;17.80;99.90;;;;;;4988157;28;20035;-80
2021/03/25 13:07:52;;;;;;;10.05;7.25;;;17.80;99.90;;;;;;4995930;28;20033;-79
2021/03/25 13:10:23;;;;;;;10.60;6.68;;;17.60;99.90;;;;;;4993965;28;20035;-79
2021/03/25 13:12:49;;;;;;;9.75;6.03;;;18.00;99.90;;;;;;4978582;28;20364;-82
2021/03/25 13:15:17;;;;;;;9.70;6.07;;;17.90;99.90;;;;;;4982506;28;20031;-79
2021/03/25 13:17:42;;;;;;;8.73;5.50;;;17.60;99.90;;;;;;4982315;28;20035;-78
2021/03/25 13:20:10;;;;;;;9.55;6.20;;;17.30;99.90;;;;;;4984388;28;20023;-80